Middlebourne, West Virginia
Current Conditions -  °F | °C
As of 12:53 AM on Saturday 29 Nov 2014 (Local Time) from KPKB Reporting Station
Clear Clear  
Wind Chill: 25°   Ceiling: Unl
Heat Index: 30°   Visibility: 10mi
Dew Point: 19°   Wind: 5mph
Humidity: 64%   Direction: 140°SE
Pressure: 30.18"   Gusts: NA
Location:  39.49°N, 80.9°W
Report Text: KPKB 290553Z AUTO 14004KT 10SM CLR M01/M07 A3018 RMK AO2 SLP230 T10111072 11011 21017 56017
Loading
Personal Weather Stations






























Interactive Weather Map New forecast layout! Learn more

10-Day Weather Forecast

Advertisements
Track Severe Weather on mobile